> Flugplatz > 
Bitte achten Sie beim Anflug auf mögliche Fallschirmspringer auf der Nord seite desPlatzes, kontaktieren Sie zur Sicherheit den Flugleiter auf Leutkirch INFO 122,875.
Zollabfertigung:
für Ein- und Ausflug bei Voranmeldung mindestens 3 Stunden, nur Personenverkehr – keine Warenabfertigung.
Günstig Tanken:
Avgas 100 II · Super 95 · Jet A1 · Diesel
Achtung! Sommer-Öffnungszeiten:
15.03.2016 – 31.10.2016:
Täglich 09:00 – SS+30/20:00 (loc)
So/Hol  10:30 – SS+30/20:00 (loc)

Weitere Informationen finden Sie in unserem Newsbereich.

Nutzen Sie unsere Online-Anmeldung zur Zoll- und Passkontrolle.
Aktuelles:
Sicherheits- und Servicehinweise:
2016/05/29 14:50 EDJA 291450Z 25014KT 8000 -TSRA SCT005 BKN021CB BKN029 14/13 Q1004
2016/05/29 14:50 EDNY 291450Z 26004KT 220V300 9999 SCT007 BKN054 OVC062 15/14 Q1006 RERA
2016/05/29 15:03 ETHL 291503Z 22019G35KT 3000 +TSRA BR BKN030CB BKN100 14/13 Q1004 YLO
Aktuelle METAR Daten (Memmingen, Friedrichshafen, Laupheim):